Аэропорт: Сокол. Магадан

ICAO: UHMM

METAR:
2022-06-26 10:00:00
UHMM 261000Z 26001MPS 9999 NSC 13/09 Q1002 RMK QFE737 R28/31003MPS
METAR:
2022-06-26 07:58:00
TAF UHMM 260758Z 2609/2715 22003MPS 9999 SCT011 BECMG 2612/2614 3100 BR FEW004 OVC011 TEMPO 2614/2623 0400 FG VV003 FM262300 24003G10MPS 9999 SCT020